Wetterdaten: Mittwoch, 19.09.2007
Datum Zeit Temp. A. Feuchte A. Luftdruck Regen Wind Richtung Richtung Sonnenschein UV Solar Windben
19.09.2007 00:00 8,0 C 82 % 1021,4 hPa 0,0 mm 3,2 km/h (1 Bft) W-SW 247 0 min 0 UV-I 0 W/m 8,0 km/h (2 Bft)
19.09.2007 00:10 8,1 C 82 % 1021,4 hPa 0,0 mm 4,8 km/h (1 Bft) W 270 0 min 0 UV-I 0 W/m 8,0 km/h (2 Bft)
19.09.2007 00:20 8,1 C 82 % 1021,4 hPa 0,0 mm 4,8 km/h (1 Bft) W-SW 247 0 min 0 UV-I 0 W/m 9,7 km/h (2 Bft)
19.09.2007 00:30 8,1 C 83 % 1021,4 hPa 0,0 mm 3,2 km/h (1 Bft) W-SW 247 0 min 0 UV-I 0 W/m 8,0 km/h (2 Bft)
19.09.2007 00:40 7,9 C 84 % 1021,5 hPa 0,0 mm 3,2 km/h (1 Bft) W 270 0 min 0 UV-I 0 W/m 8,0 km/h (2 Bft)
19.09.2007 00:50 7,8 C 84 % 1021,5 hPa 0,0 mm 1,6 km/h (1 Bft) W-SW 247 0 min 0 UV-I 0 W/m 6,4 km/h (2 Bft)
19.09.2007 01:00 7,7 C 85 % 1021,6 hPa 0,0 mm 1,6 km/h (1 Bft) W-SW 247 0 min 0 UV-I 0 W/m 4,8 km/h (1 Bft)
19.09.2007 01:10 7,5 C 85 % 1021,5 hPa 0,0 mm 1,6 km/h (1 Bft) W-SW 247 0 min 0 UV-I 0 W/m 8,0 km/h (2 Bft)
19.09.2007 01:20 7,5 C 85 % 1021,6 hPa 0,0 mm 1,6 km/h (1 Bft) W 270 0 min 0 UV-I 0 W/m 8,0 km/h (2 Bft)
19.09.2007 01:30 7,6 C 85 % 1021,6 hPa 0,0 mm 1,6 km/h (1 Bft) W 270 0 min 0 UV-I 0 W/m 3,2 km/h (1 Bft)
19.09.2007 01:40 7,4 C 86 % 1021,6 hPa 0,0 mm 0,0 km/h (0 Bft) W-SW 247 0 min 0 UV-I 0 W/m 3,2 km/h (1 Bft)
19.09.2007 01:50 7,4 C 86 % 1021,6 hPa 0,0 mm 0,0 km/h (0 Bft) W-SW 247 0 min 0 UV-I 0 W/m 4,8 km/h (1 Bft)
19.09.2007 02:00 7,3 C 86 % 1021,7 hPa 0,0 mm 1,6 km/h (1 Bft) SW 225 0 min 0 UV-I 0 W/m 4,8 km/h (1 Bft)
19.09.2007 02:10 7,3 C 87 % 1021,7 hPa 0,0 mm 1,6 km/h (1 Bft) SW 225 0 min 0 UV-I 0 W/m 4,8 km/h (1 Bft)
19.09.2007 02:20 7,4 C 87 % 1021,7 hPa 0,0 mm 3,2 km/h (1 Bft) W-SW 247 0 min 0 UV-I 0 W/m 8,0 km/h (2 Bft)
19.09.2007 02:30 7,6 C 87 % 1021,7 hPa 0,0 mm 3,2 km/h (1 Bft) W-SW 247 0 min 0 UV-I 0 W/m 9,7 km/h (2 Bft)
19.09.2007 02:40 7,7 C 86 % 1021,7 hPa 0,0 mm 3,2 km/h (1 Bft) W-SW 247 0 min 0 UV-I 0 W/m 6,4 km/h (2 Bft)
19.09.2007 02:50 7,8 C 85 % 1021,7 hPa 0,0 mm 3,2 km/h (1 Bft) W 270 0 min 0 UV-I 0 W/m 9,7 km/h (2 Bft)
19.09.2007 03:00 7,8 C 85 % 1021,6 hPa 0,0 mm 3,2 km/h (1 Bft) SW 225 0 min 0 UV-I 0 W/m 8,0 km/h (2 Bft)
19.09.2007 03:10 7,8 C 85 % 1021,6 hPa 0,0 mm 4,8 km/h (1 Bft) W-SW 247 0 min 0 UV-I 0 W/m 11,3 km/h (2 Bft)
19.09.2007 03:20 7,8 C 85 % 1021,6 hPa 0,0 mm 3,2 km/h (1 Bft) W-SW 247 0 min 0 UV-I 0 W/m 9,7 km/h (2 Bft)
19.09.2007 03:30 7,8 C 85 % 1021,5 hPa 0,0 mm 4,8 km/h (1 Bft) W 270 0 min 0 UV-I 0 W/m 14,5 km/h (3 Bft)
19.09.2007 03:40 7,9 C 85 % 1021,7 hPa 0,0 mm 3,2 km/h (1 Bft) W 270 0 min 0 UV-I 0 W/m 11,3 km/h (2 Bft)
19.09.2007 03:50 8,1 C 85 % 1021,7 hPa 0,0 mm 4,8 km/h (1 Bft) W 270 0 min 0 UV-I 0 W/m 9,7 km/h (2 Bft)
19.09.2007 04:00 8,1 C 85 % 1021,7 hPa 0,0 mm 4,8 km/h (1 Bft) W-SW 247 0 min 0 UV-I 0 W/m 9,7 km/h (2 Bft)
19.09.2007 04:10 8,2 C 85 % 1021,7 hPa 0,0 mm 4,8 km/h (1 Bft) W-SW 247 0 min 0 UV-I 0 W/m 11,3 km/h (2 Bft)
19.09.2007 04:20 8,2 C 84 % 1021,6 hPa 0,0 mm 4,8 km/h (1 Bft) W 270 0 min 0 UV-I 0 W/m 9,7 km/h (2 Bft)
19.09.2007 04:30 8,3 C 84 % 1021,6 hPa 0,0 mm 4,8 km/h (1 Bft) W 270 0 min 0 UV-I 0 W/m 16,1 km/h (3 Bft)
19.09.2007 04:40 8,3 C 84 % 1021,6 hPa 0,0 mm 4,8 km/h (1 Bft) W 270 0 min 0 UV-I 0 W/m 11,3 km/h (2 Bft)
19.09.2007 04:50 8,2 C 85 % 1021,5 hPa 0,0 mm 3,2 km/h (1 Bft) W 270 0 min 0 UV-I 0 W/m 8,0 km/h (2 Bft)
19.09.2007 05:00 8,2 C 85 % 1021,4 hPa 0,0 mm 3,2 km/h (1 Bft) W 270 0 min 0 UV-I 0 W/m 8,0 km/h (2 Bft)
19.09.2007 05:10 8,2 C 84 % 1021,4 hPa 0,0 mm 3,2 km/h (1 Bft) W 270 0 min 0 UV-I 0 W/m 8,0 km/h (2 Bft)
19.09.2007 05:20 8,1 C 84 % 1021,5 hPa 0,0 mm 3,2 km/h (1 Bft) W-SW 247 0 min 0 UV-I 0 W/m 6,4 km/h (2 Bft)
19.09.2007 05:30 8,0 C 84 % 1021,5 hPa 0,0 mm 1,6 km/h (1 Bft) W-SW 247 0 min 0 UV-I 0 W/m 6,4 km/h (2 Bft)
19.09.2007 05:40 7,9 C 85 % 1021,5 hPa 0,0 mm 1,6 km/h (1 Bft) W-SW 247 0 min 0 UV-I 0 W/m 4,8 km/h (1 Bft)
19.09.2007 05:50 7,7 C 85 % 1021,5 hPa 0,0 mm 1,6 km/h (1 Bft) W-SW 247 0 min 0 UV-I 0 W/m 8,0 km/h (2 Bft)
19.09.2007 06:00 7,6 C 85 % 1021,5 hPa 0,0 mm 1,6 km/h (1 Bft) S-SW 202 0 min 0 UV-I 0 W/m 4,8 km/h (1 Bft)
19.09.2007 06:10 7,3 C 86 % 1021,6 hPa 0,0 mm 0,0 km/h (0 Bft) SW 225 0 min 0 UV-I 0 W/m 4,8 km/h (1 Bft)
19.09.2007 06:20 7,2 C 86 % 1021,7 hPa 0,0 mm 0,0 km/h (0 Bft) SW 225 0 min 0 UV-I 0 W/m 3,2 km/h (1 Bft)
19.09.2007 06:30 7,1 C 87 % 1021,8 hPa 0,0 mm 0,0 km/h (0 Bft) SW 225 0 min 0 UV-I 0 W/m 1,6 km/h (1 Bft)
19.09.2007 06:40 7,0 C 87 % 1021,8 hPa 0,0 mm 0,0 km/h (0 Bft) SW 225 0 min 0 UV-I 0 W/m 1,6 km/h (1 Bft)
19.09.2007 06:50 6,8 C 87 % 1021,8 hPa 0,0 mm 0,0 km/h (0 Bft) N 0 0 min 0 UV-I 0 W/m 0,0 km/h (0 Bft)
19.09.2007 07:00 6,8 C 88 % 1021,9 hPa 0,0 mm 0,0 km/h (0 Bft) SW 225 0 min 0 UV-I 0 W/m 1,6 km/h (1 Bft)
19.09.2007 07:10 6,8 C 89 % 1021,9 hPa 0,0 mm 0,0 km/h (0 Bft) SW 225 0 min 0 UV-I 5 W/m 1,6 km/h (1 Bft)
19.09.2007 07:20 6,9 C 89 % 1022,0 hPa 0,0 mm 0,0 km/h (0 Bft) SW 225 10 min 0 UV-I 14 W/m 3,2 km/h (1 Bft)
19.09.2007 07:30 7,1 C 88 % 1022,1 hPa 0,0 mm 0,0 km/h (0 Bft) SW 225 0 min 0 UV-I 19 W/m 1,6 km/h (1 Bft)
19.09.2007 07:40 7,3 C 87 % 1022,1 hPa 0,0 mm 0,0 km/h (0 Bft) SW 225 0 min 0 UV-I 16 W/m 1,6 km/h (1 Bft)
19.09.2007 07:50 7,5 C 86 % 1022,1 hPa 0,0 mm 0,0 km/h (0 Bft) SW 225 0 min 0 UV-I 19 W/m 1,6 km/h (1 Bft)
19.09.2007 08:00 7,7 C 85 % 1022,1 hPa 0,0 mm 1,6 km/h (1 Bft) SW 225 0 min 0 UV-I 19 W/m 4,8 km/h (1 Bft)
19.09.2007 08:10 7,8 C 83 % 1022,2 hPa 0,0 mm 1,6 km/h (1 Bft) SW 225 0 min 0 UV-I 23 W/m 4,8 km/h (1 Bft)
19.09.2007 08:20 8,0 C 82 % 1022,3 hPa 0,0 mm 1,6 km/h (1 Bft) SW 225 0 min 0 UV-I 23 W/m 4,8 km/h (1 Bft)
19.09.2007 08:30 8,1 C 82 % 1022,3 hPa 0,0 mm 0,0 km/h (0 Bft) SW 225 0 min 0 UV-I 40 W/m 4,8 km/h (1 Bft)
19.09.2007 08:40 8,2 C 80 % 1022,3 hPa 0,0 mm 1,6 km/h (1 Bft) SW 225 0 min 0 UV-I 56 W/m 4,8 km/h (1 Bft)
19.09.2007 08:50 8,3 C 79 % 1022,4 hPa 0,0 mm 1,6 km/h (1 Bft) W-SW 247 0 min 0 UV-I 76 W/m 8,0 km/h (2 Bft)
19.09.2007 09:00 8,5 C 78 % 1022,4 hPa 0,0 mm 1,6 km/h (1 Bft) W-SW 247 0 min 0 UV-I 74 W/m 6,4 km/h (2 Bft)
19.09.2007 09:10 8,6 C 76 % 1022,4 hPa 0,0 mm 3,2 km/h (1 Bft) SW 225 0 min 0 UV-I 88 W/m 6,4 km/h (2 Bft)
19.09.2007 09:20 8,7 C 76 % 1022,4 hPa 0,0 mm 3,2 km/h (1 Bft) SW 225 0 min 0 UV-I 102 W/m 9,7 km/h (2 Bft)
19.09.2007 09:30 8,9 C 75 % 1022,5 hPa 0,0 mm 3,2 km/h (1 Bft) W-SW 247 0 min 1 UV-I 109 W/m 8,0 km/h (2 Bft)
19.09.2007 09:40 9,1 C 74 % 1022,4 hPa 0,0 mm 3,2 km/h (1 Bft) S-SW 202 0 min 1 UV-I 135 W/m 8,0 km/h (2 Bft)
19.09.2007 09:50 9,4 C 72 % 1022,4 hPa 0,0 mm 3,2 km/h (1 Bft) S-SW 202 0 min 1 UV-I 149 W/m 9,7 km/h (2 Bft)
19.09.2007 10:00 9,8 C 70 % 1022,4 hPa 0,0 mm 4,8 km/h (1 Bft) SW 225 0 min 1 UV-I 165 W/m 14,5 km/h (3 Bft)
19.09.2007 10:10 10,1 C 70 % 1022,5 hPa 0,0 mm 4,8 km/h (1 Bft) SW 225 0 min 1 UV-I 190 W/m 14,5 km/h (3 Bft)
19.09.2007 10:20 10,4 C 69 % 1022,5 hPa 0,0 mm 4,8 km/h (1 Bft) SW 225 0 min 1 UV-I 243 W/m 14,5 km/h (3 Bft)
19.09.2007 10:30 10,7 C 68 % 1022,4 hPa 0,0 mm 6,4 km/h (2 Bft) S-SW 202 10 min 2 UV-I 369 W/m 19,3 km/h (3 Bft)
19.09.2007 10:40 11,1 C 67 % 1022,4 hPa 0,0 mm 6,4 km/h (2 Bft) W-SW 247 10 min 2 UV-I 475 W/m 17,7 km/h (3 Bft)
19.09.2007 10:50 11,7 C 66 % 1022,4 hPa 0,0 mm 8,0 km/h (2 Bft) W-SW 247 10 min 2 UV-I 577 W/m 20,9 km/h (4 Bft)
19.09.2007 11:00 12,0 C 65 % 1022,4 hPa 0,0 mm 8,0 km/h (2 Bft) W-SW 247 10 min 2 UV-I 552 W/m 20,9 km/h (4 Bft)
19.09.2007 11:10 12,3 C 62 % 1022,4 hPa 0,0 mm 11,3 km/h (2 Bft) W-SW 247 10 min 3 UV-I 526 W/m 27,4 km/h (4 Bft)
19.09.2007 11:20 12,5 C 61 % 1022,4 hPa 0,0 mm 9,7 km/h (2 Bft) W-SW 247 10 min 3 UV-I 538 W/m 24,1 km/h (4 Bft)
19.09.2007 11:30 12,7 C 62 % 1022,3 hPa 0,0 mm 8,0 km/h (2 Bft) W 270 10 min 3 UV-I 555 W/m 20,9 km/h (4 Bft)
19.09.2007 11:40 13,0 C 61 % 1022,3 hPa 0,0 mm 8,0 km/h (2 Bft) W-SW 247 10 min 3 UV-I 570 W/m 20,9 km/h (4 Bft)
19.09.2007 11:50 13,3 C 60 % 1022,3 hPa 0,0 mm 9,7 km/h (2 Bft) W-SW 247 10 min 3 UV-I 580 W/m 22,5 km/h (4 Bft)
19.09.2007 12:00 13,3 C 59 % 1022,2 hPa 0,0 mm 9,7 km/h (2 Bft) SW 225 10 min 3 UV-I 598 W/m 20,9 km/h (4 Bft)
19.09.2007 12:10 13,4 C 58 % 1022,2 hPa 0,0 mm 9,7 km/h (2 Bft) W-SW 247 10 min 3 UV-I 638 W/m 24,1 km/h (4 Bft)
19.09.2007 12:20 13,8 C 57 % 1022,1 hPa 0,0 mm 9,7 km/h (2 Bft) W-SW 247 10 min 3 UV-I 652 W/m 20,9 km/h (4 Bft)
19.09.2007 12:30 13,7 C 58 % 1022,1 hPa 0,0 mm 11,3 km/h (2 Bft) W-SW 247 10 min 4 UV-I 717 W/m 27,4 km/h (4 Bft)
19.09.2007 12:40 14,0 C 55 % 1022,0 hPa 0,0 mm 9,7 km/h (2 Bft) W 270 10 min 4 UV-I 765 W/m 27,4 km/h (4 Bft)
19.09.2007 12:50 14,6 C 51 % 1021,9 hPa 0,0 mm 8,0 km/h (2 Bft) W 270 10 min 4 UV-I 851 W/m 20,9 km/h (4 Bft)
19.09.2007 13:00 14,7 C 52 % 1021,8 hPa 0,0 mm 11,3 km/h (2 Bft) W 270 10 min 4 UV-I 793 W/m 29,0 km/h (5 Bft)
19.09.2007 13:10 14,9 C 52 % 1021,9 hPa 0,0 mm 9,7 km/h (2 Bft) W-SW 247 10 min 4 UV-I 788 W/m 24,1 km/h (4 Bft)
19.09.2007 13:20 14,9 C 49 % 1021,7 hPa 0,0 mm 9,7 km/h (2 Bft) W 270 10 min 4 UV-I 909 W/m 20,9 km/h (4 Bft)
19.09.2007 13:30 14,9 C 52 % 1021,8 hPa 0,0 mm 9,7 km/h (2 Bft) W 270 10 min 4 UV-I 733 W/m 27,4 km/h (4 Bft)
19.09.2007 13:40 14,3 C 55 % 1021,9 hPa 0,0 mm 9,7 km/h (2 Bft) W 270 10 min 2 UV-I 357 W/m 22,5 km/h (4 Bft)
19.09.2007 13:50 14,2 C 54 % 1021,9 hPa 0,0 mm 8,0 km/h (2 Bft) W-SW 247 10 min 3 UV-I 459 W/m 24,1 km/h (4 Bft)
19.09.2007 14:00 14,5 C 52 % 1021,9 hPa 0,0 mm 8,0 km/h (2 Bft) W-SW 247 10 min 4 UV-I 752 W/m 20,9 km/h (4 Bft)
19.09.2007 14:10 15,0 C 51 % 1021,8 hPa 0,0 mm 6,4 km/h (2 Bft) W-SW 247 10 min 4 UV-I 715 W/m 17,7 km/h (3 Bft)
19.09.2007 14:20 14,7 C 53 % 1021,7 hPa 0,0 mm 8,0 km/h (2 Bft) W-SW 247 0 min 2 UV-I 251 W/m 22,5 km/h (4 Bft)
19.09.2007 14:30 14,3 C 55 % 1021,7 hPa 0,0 mm 6,4 km/h (2 Bft) W 270 10 min 3 UV-I 575 W/m 17,7 km/h (3 Bft)
19.09.2007 14:40 14,4 C 53 % 1021,7 hPa 0,0 mm 8,0 km/h (2 Bft) W 270 0 min 2 UV-I 230 W/m 19,3 km/h (3 Bft)
19.09.2007 14:50 14,2 C 53 % 1021,7 hPa 0,0 mm 8,0 km/h (2 Bft) W 270 0 min 2 UV-I 271 W/m 19,3 km/h (3 Bft)
19.09.2007 15:00 14,0 C 53 % 1021,7 hPa 0,0 mm 9,7 km/h (2 Bft) W 270 0 min 2 UV-I 269 W/m 20,9 km/h (4 Bft)
19.09.2007 15:10 14,1 C 55 % 1021,7 hPa 0,0 mm 6,4 km/h (2 Bft) W 270 10 min 2 UV-I 689 W/m 16,1 km/h (3 Bft)
19.09.2007 15:20 14,3 C 53 % 1021,7 hPa 0,0 mm 8,0 km/h (2 Bft) W-SW 247 10 min 3 UV-I 643 W/m 19,3 km/h (3 Bft)
19.09.2007 15:30 14,8 C 52 % 1021,7 hPa 0,0 mm 6,4 km/h (2 Bft) SW 225 10 min 3 UV-I 642 W/m 17,7 km/h (3 Bft)
19.09.2007 15:40 14,7 C 51 % 1021,5 hPa 0,0 mm 6,4 km/h (2 Bft) W-SW 247 10 min 2 UV-I 633 W/m 16,1 km/h (3 Bft)
19.09.2007 15:50 15,7 C 47 % 1021,4 hPa 0,0 mm 7,8 km/h (2 Bft) S 190 10 min 2 UV-I 539 W/m 22,5 km/h (4 Bft)
19.09.2007 16:00 15,5 C 49 % 1021,3 hPa 0,0 mm 6,4 km/h (2 Bft) W-SW 247 10 min 2 UV-I 585 W/m 24,1 km/h (4 Bft)
19.09.2007 16:10 15,8 C 46 % 1021,3 hPa 0,0 mm 9,7 km/h (2 Bft) W-SW 247 10 min 2 UV-I 566 W/m 22,5 km/h (4 Bft)
19.09.2007 16:20 15,6 C 48 % 1021,3 hPa 0,0 mm 8,0 km/h (2 Bft) W 270 10 min 2 UV-I 536 W/m 20,9 km/h (4 Bft)
19.09.2007 16:30 15,1 C 51 % 1021,2 hPa 0,0 mm 9,7 km/h (2 Bft) W-SW 247 10 min 2 UV-I 510 W/m 20,9 km/h (4 Bft)
19.09.2007 16:40 15,2 C 50 % 1021,2 hPa 0,0 mm 6,4 km/h (2 Bft) W-SW 247 10 min 1 UV-I 513 W/m 19,3 km/h (3 Bft)
19.09.2007 16:50 15,6 C 49 % 1021,1 hPa 0,0 mm 6,4 km/h (2 Bft) SW 225 10 min 1 UV-I 439 W/m 16,1 km/h (3 Bft)
19.09.2007 17:00 15,2 C 50 % 1021,2 hPa 0,0 mm 9,7 km/h (2 Bft) W-SW 247 0 min 1 UV-I 139 W/m 20,9 km/h (4 Bft)
19.09.2007 17:10 14,9 C 51 % 1021,1 hPa 0,0 mm 6,4 km/h (2 Bft) W-SW 247 10 min 1 UV-I 411 W/m 17,7 km/h (3 Bft)
19.09.2007 17:20 15,3 C 51 % 1021,1 hPa 0,0 mm 8,0 km/h (2 Bft) S-SW 202 10 min 1 UV-I 334 W/m 20,9 km/h (4 Bft)
19.09.2007 17:30 15,0 C 51 % 1021,1 hPa 0,0 mm 8,0 km/h (2 Bft) W-SW 247 10 min 1 UV-I 352 W/m 29,0 km/h (5 Bft)
19.09.2007 17:40 15,1 C 52 % 1021,0 hPa 0,0 mm 8,0 km/h (2 Bft) W-SW 247 10 min 1 UV-I 290 W/m 19,3 km/h (3 Bft)
19.09.2007 17:50 14,9 C 55 % 1021,0 hPa 0,0 mm 8,0 km/h (2 Bft) W-SW 247 10 min 1 UV-I 241 W/m 20,9 km/h (4 Bft)
19.09.2007 18:00 14,9 C 54 % 1021,0 hPa 0,0 mm 6,4 km/h (2 Bft) W 270 10 min 1 UV-I 218 W/m 19,3 km/h (3 Bft)
19.09.2007 18:10 14,5 C 56 % 1021,0 hPa 0,0 mm 6,4 km/h (2 Bft) W-SW 247 10 min 0 UV-I 148 W/m 17,7 km/h (3 Bft)
19.09.2007 18:20 14,1 C 59 % 1020,9 hPa 0,0 mm 3,2 km/h (1 Bft) SW 225 10 min 0 UV-I 160 W/m 11,3 km/h (2 Bft)
19.09.2007 18:30 14,2 C 58 % 1020,9 hPa 0,0 mm 3,2 km/h (1 Bft) W-SW 247 10 min 0 UV-I 181 W/m 11,3 km/h (2 Bft)
19.09.2007 18:40 14,5 C 58 % 1021,0 hPa 0,0 mm 3,2 km/h (1 Bft) W 270 10 min 0 UV-I 137 W/m 8,0 km/h (2 Bft)
19.09.2007 18:50 14,4 C 57 % 1021,0 hPa 0,0 mm 4,8 km/h (1 Bft) W-SW 247 10 min 0 UV-I 139 W/m 14,5 km/h (3 Bft)
19.09.2007 19:00 14,1 C 58 % 1021,0 hPa 0,0 mm 6,4 km/h (2 Bft) W-SW 247 10 min 0 UV-I 74 W/m 14,5 km/h (3 Bft)
19.09.2007 19:10 13,6 C 61 % 1021,0 hPa 0,0 mm 3,2 km/h (1 Bft) SW 225 0 min 0 UV-I 23 W/m 9,7 km/h (2 Bft)
19.09.2007 19:20 13,2 C 61 % 1020,9 hPa 0,0 mm 3,2 km/h (1 Bft) SW 225 10 min 0 UV-I 16 W/m 8,0 km/h (2 Bft)
19.09.2007 19:30 12,9 C 63 % 1021,0 hPa 0,0 mm 3,2 km/h (1 Bft) SW 225 0 min 0 UV-I 11 W/m 8,0 km/h (2 Bft)
19.09.2007 19:40 12,5 C 65 % 1021,0 hPa 0,0 mm 1,6 km/h (1 Bft) S-SW 202 0 min 0 UV-I 0 W/m 4,8 km/h (1 Bft)
19.09.2007 19:50 12,2 C 66 % 1020,9 hPa 0,0 mm 1,6 km/h (1 Bft) S-SW 202 0 min 0 UV-I 0 W/m 3,2 km/h (1 Bft)
19.09.2007 20:00 11,9 C 66 % 1020,9 hPa 0,0 mm 1,6 km/h (1 Bft) S-SW 202 0 min 0 UV-I 0 W/m 3,2 km/h (1 Bft)
19.09.2007 20:10 11,8 C 67 % 1020,8 hPa 0,0 mm 0,0 km/h (0 Bft) S-SW 202 0 min 0 UV-I 0 W/m 4,8 km/h (1 Bft)
19.09.2007 20:20 11,8 C 67 % 1020,8 hPa 0,0 mm 1,6 km/h (1 Bft) S-SW 202 0 min 0 UV-I 0 W/m 4,8 km/h (1 Bft)
19.09.2007 20:30 11,7 C 68 % 1020,9 hPa 0,0 mm 1,6 km/h (1 Bft) S 180 0 min 0 UV-I 0 W/m 4,8 km/h (1 Bft)
19.09.2007 20:40 11,6 C 68 % 1020,9 hPa 0,0 mm 1,6 km/h (1 Bft) S 180 0 min 0 UV-I 0 W/m 8,0 km/h (2 Bft)
19.09.2007 20:50 11,3 C 69 % 1020,9 hPa 0,0 mm 0,0 km/h (0 Bft) S 180 0 min 0 UV-I 0 W/m 3,2 km/h (1 Bft)
19.09.2007 21:00 11,2 C 69 % 1020,9 hPa 0,0 mm 0,0 km/h (0 Bft) S 180 0 min 0 UV-I 0 W/m 3,2 km/h (1 Bft)
19.09.2007 21:10 11,0 C 70 % 1020,9 hPa 0,0 mm 0,0 km/h (0 Bft) S 180 0 min 0 UV-I 0 W/m 3,2 km/h (1 Bft)
19.09.2007 21:20 10,8 C 71 % 1021,0 hPa 0,0 mm 0,0 km/h (0 Bft) S 180 0 min 0 UV-I 0 W/m 3,2 km/h (1 Bft)
19.09.2007 21:30 10,6 C 72 % 1020,8 hPa 0,0 mm 0,0 km/h (0 Bft) S 180 0 min 0 UV-I 0 W/m 1,6 km/h (1 Bft)
19.09.2007 21:40 10,4 C 73 % 1020,9 hPa 0,0 mm 0,0 km/h (0 Bft) SO 135 0 min 0 UV-I 0 W/m 3,2 km/h (1 Bft)
19.09.2007 21:50 10,1 C 73 % 1021,1 hPa 0,0 mm 0,0 km/h (0 Bft) S-SO 157 0 min 0 UV-I 0 W/m 3,2 km/h (1 Bft)
19.09.2007 22:00 9,9 C 74 % 1021,2 hPa 0,0 mm 0,0 km/h (0 Bft) S-SO 157 0 min 0 UV-I 0 W/m 1,6 km/h (1 Bft)
19.09.2007 22:10 9,8 C 75 % 1021,1 hPa 0,0 mm 0,0 km/h (0 Bft) S-SO 157 0 min 0 UV-I 0 W/m 3,2 km/h (1 Bft)
19.09.2007 22:20 9,7 C 76 % 1021,2 hPa 0,0 mm 1,6 km/h (1 Bft) S-SO 157 0 min 0 UV-I 0 W/m 4,8 km/h (1 Bft)
19.09.2007 22:30 9,7 C 76 % 1021,2 hPa 0,0 mm 1,6 km/h (1 Bft) S-SO 157 0 min 0 UV-I 0 W/m 6,4 km/h (2 Bft)
19.09.2007 22:40 9,7 C 76 % 1021,2 hPa 0,0 mm 1,6 km/h (1 Bft) S 180 0 min 0 UV-I 0 W/m 6,4 km/h (2 Bft)
19.09.2007 22:50 9,7 C 76 % 1021,1 hPa 0,0 mm 1,6 km/h (1 Bft) S-SW 202 0 min 0 UV-I 0 W/m 6,4 km/h (2 Bft)
19.09.2007 23:00 9,8 C 76 % 1021,0 hPa 0,0 mm 1,6 km/h (1 Bft) S-SW 202 0 min 0 UV-I 0 W/m 6,4 km/h (2 Bft)
19.09.2007 23:10 9,9 C 76 % 1020,9 hPa 0,0 mm 1,6 km/h (1 Bft) S-SW 202 0 min 0 UV-I 0 W/m 6,4 km/h (2 Bft)
19.09.2007 23:20 10,1 C 76 % 1020,8 hPa 0,0 mm 1,6 km/h (1 Bft) SW 225 0 min 0 UV-I 0 W/m 6,4 km/h (2 Bft)
19.09.2007 23:30 10,2 C 75 % 1020,7 hPa 0,0 mm 3,2 km/h (1 Bft) S-SW 202 0 min 0 UV-I 0 W/m 8,0 km/h (2 Bft)
19.09.2007 23:40 10,3 C 75 % 1020,7 hPa 0,0 mm 1,6 km/h (1 Bft) W-SW 247 0 min 0 UV-I 0 W/m 6,4 km/h (2 Bft)
19.09.2007 23:50 10,5 C 75 % 1020,6 hPa 0,0 mm 3,2 km/h (1 Bft) S-SW 202 0 min 0 UV-I 0 W/m 8,0 km/h (2 Bft)
_ Min-Zeit 06:50 16:10 23:50 - 01:40 - - - - - 06:50
Minimum _ 6,8 C 46 % 1020,6 hPa - 0,0 km/h (0 Bft) - - - - - 0,0 km/h (0 Bft)
_ Max-Zeit 16:10 07:10 09:30 00:00 11:10 - - 07:20 13:20 13:20 13:00
Maximum _ 15,9 C 89 % 1022,5 hPa 0,0 mm 11,3 km/h
W-SW (2 Bft)
- - 10 min 4 UV-I 909 W/m 29,0 km/h
W (5 Bft)
Durchschnitt _ 10,8 C 71 % 1021,6 hPa #0,0 mm 4,2 km/h (1 Bft) W-SW - #8:10 h 2 UV-I 357 W/m 11,5 km/h (2 Bft)